Weather History for Superior, WI

Change the Weather History Date:

Sunday, June 9, 2013

  Actual Average Record
Temperature  
Mean Temperature 44 °F -  
Max Temperature 47 °F 66 °F 92 °F (1956)
Min Temperature 43 °F 44 °F 29 °F (1966)
Degree Days  
Heating Degree Days 20    
Moisture  
Dew Point 41 °F    
Average Humidity 89    
Maximum Humidity 99    
Minimum Humidity 73    
Precipitation  
Precipitation 0.60 in - - ()
Sea Level Pressure  
Sea Level Pressure 29.95 in    
Wind  
Wind Speed 7 mph (ENE)    
Max Wind Speed 15 mph    
Max Gust Speed 22 mph    
Visibility 9 miles    
Events Rain    
Averages and records for this station are not official NWS values.
T = Trace of Precipitation, MM = Missing Value Source: NWS Daily Summary

Daily Weather History Graph

Daily Weather History Graph

Search for Another Location

Airport:

Trip Planner

Search our weather history database for the weather conditions in past years. The results will help you decide how hot, cold, wet, or windy it might be!

Date:

Astronomy

Jun. 09, 2013 Rise Set
Actual Time 5:14 AM CDT 9:00 PM CDT
Civil Twilight 4:35 AM CDT 9:39 PM CDT
Nautical Twilight 3:43 AM CDT 10:32 PM CDT
Astronomical Twilight 2:28 AM CDT 11:48 PM CDT
Moon 6:15 AM CDT (6/9) 9:42 PM CDT (6/9)
Length of Visible Light 17h 03m
Length of Day
15h 45m
New Moon, 1% of the Moon is Illuminated
Jun 9
New Moon
Jun 16
First Quarter
Jun 23
Full
Jun 29
Last Quarter
Jul 8
New

Hourly Weather History & Observations

Time (CDT) Temp. Windchill Dew Point Humidity Pressure Visibility Wind Dir Wind Speed Gust Speed Precip Events Conditions
12:15 AM 45.1 °F 43.7 °F 37.9 °F 76% 29.99 in 10.0 mi ENE 3.5 mph - N/A   Clear
12:35 AM 45.0 °F - 38.3 °F 77% 30.01 in 10.0 mi Calm Calm - N/A   Clear
12:55 AM 43.9 °F 42.3 °F 37.8 °F 79% 30.00 in 10.0 mi ENE 3.5 mph - N/A   Clear
1:15 AM 44.6 °F 41.4 °F 38.3 °F 79% 30.00 in 10.0 mi NE 5.8 mph - N/A   Clear
1:35 AM 44.8 °F 41.6 °F 38.3 °F 78% 30.00 in 10.0 mi NE 5.8 mph - N/A   Clear
1:55 AM 44.6 °F 41.4 °F 37.9 °F 77% 30.00 in 10.0 mi NE 5.8 mph - N/A   Clear
2:15 AM 45.0 °F 41.8 °F 38.3 °F 77% 30.00 in 10.0 mi NE 5.8 mph - N/A   Clear
2:35 AM 44.6 °F 41.4 °F 37.0 °F 75% 29.99 in 10.0 mi NE 5.8 mph - N/A   Clear
2:55 AM 45.0 °F 41.2 °F 36.9 °F 73% 29.99 in 10.0 mi NE 6.9 mph - N/A   Clear
3:15 AM 45.0 °F 41.2 °F 37.2 °F 74% 29.99 in 10.0 mi NE 6.9 mph - N/A   Clear
3:35 AM 44.6 °F 40.7 °F 37.0 °F 75% 29.98 in 10.0 mi NE 6.9 mph - N/A   Clear
3:55 AM 44.2 °F 40.3 °F 36.9 °F 75% 29.99 in 10.0 mi ENE 6.9 mph - N/A   Clear
4:15 AM 44.1 °F 40.1 °F 37.2 °F 77% 29.99 in 10.0 mi NE 6.9 mph - N/A   Clear
4:35 AM 43.7 °F 39.1 °F 37.4 °F 78% 29.98 in 10.0 mi NE 8.1 mph - N/A   Clear
4:55 AM 44.2 °F 40.3 °F 37.4 °F 77% 29.98 in 10.0 mi ENE 6.9 mph - N/A   Clear
5:15 AM 44.2 °F 39.2 °F 37.8 °F 78% 29.99 in 10.0 mi ENE 9.2 mph - N/A   Clear
5:35 AM 44.4 °F 40.0 °F 38.1 °F 79% 29.98 in 10.0 mi ENE 8.1 mph - N/A   Clear
5:55 AM 44.6 °F 40.7 °F 38.7 °F 80% 29.99 in 10.0 mi ENE 6.9 mph - N/A   Scattered Clouds
6:15 AM 44.8 °F 40.4 °F 39.0 °F 80% 29.99 in 10.0 mi NE 8.1 mph - N/A   Overcast
6:35 AM 45.7 °F 42.0 °F 39.2 °F 78% 29.99 in 10.0 mi ENE 6.9 mph - N/A   Overcast
6:55 AM 46.4 °F 41.5 °F 39.2 °F 76% 29.99 in 10.0 mi NE 10.4 mph - N/A   Overcast
7:15 AM 46.4 °F 41.9 °F 39.7 °F 78% 29.99 in 10.0 mi ENE 9.2 mph - N/A   Overcast
7:35 AM 46.4 °F 41.1 °F 39.4 °F 77% 29.99 in 10.0 mi ENE 11.5 mph - N/A   Overcast
7:55 AM 46.0 °F 40.2 °F 39.7 °F 79% 29.99 in 10.0 mi NE 12.7 mph - N/A   Mostly Cloudy
8:15 AM 46.6 °F - 40.5 °F 79% 29.99 in 10.0 mi ENE 10.4 mph - N/A   Mostly Cloudy
8:35 AM 46.6 °F - 40.6 °F 80% 29.98 in 10.0 mi ENE 10.4 mph 17.3 mph N/A   Scattered Clouds
8:55 AM 46.8 °F - 41.2 °F 81% 29.98 in 10.0 mi ENE 12.7 mph 18.4 mph N/A   Clear
9:15 AM 46.4 °F 40.7 °F 41.5 °F 83% 29.98 in 10.0 mi ENE 12.7 mph 17.3 mph N/A   Scattered Clouds
9:35 AM 45.5 °F 39.2 °F 42.8 °F 90% 29.98 in 10.0 mi ENE 13.8 mph 19.6 mph N/A Rain Light Rain
9:55 AM 45.3 °F 40.6 °F 43.3 °F 93% 29.98 in 10.0 mi ENE 9.2 mph 16.1 mph N/A Rain Light Rain
10:15 AM 45.5 °F 40.3 °F 43.7 °F 93% 29.98 in 10.0 mi ENE 10.4 mph 16.1 mph N/A Rain Light Rain
10:35 AM 45.5 °F 41.3 °F 44.2 °F 95% 29.98 in 10.0 mi ENE 8.1 mph - 0.01 in Rain Light Rain
10:55 AM 45.0 °F 41.8 °F 43.7 °F 95% 29.98 in 7.0 mi ENE 5.8 mph - 0.02 in Rain Light Rain
11:15 AM 44.6 °F 40.2 °F 43.5 °F 96% 29.98 in 7.0 mi ENE 8.1 mph - 0.02 in Rain Rain
11:35 AM 44.6 °F 40.7 °F 43.3 °F 95% 29.99 in 7.0 mi ENE 6.9 mph - 0.05 in Rain Rain
11:55 AM 44.2 °F 38.8 °F 43.2 °F 96% 29.99 in 7.0 mi ENE 10.4 mph - 0.08 in Rain Light Rain
12:15 PM 44.6 °F 40.2 °F 43.7 °F 97% 29.98 in 7.0 mi ENE 8.1 mph - 0.03 in Rain Light Rain
12:35 PM 44.6 °F 39.7 °F 43.7 °F 97% 29.98 in 7.0 mi ENE 9.2 mph - 0.05 in Rain Light Rain
12:55 PM 44.6 °F 39.2 °F 43.5 °F 96% 29.98 in 5.0 mi ENE 10.4 mph - 0.07 in Rain Rain
1:15 PM 44.6 °F 38.8 °F 43.7 °F 97% 29.98 in 4.0 mi ENE 11.5 mph - 0.04 in Rain Rain
1:35 PM 44.6 °F 38.8 °F 43.7 °F 97% 29.98 in 5.0 mi ENE 11.5 mph - 0.06 in Rain Light Rain
1:55 PM 44.6 °F 39.2 °F 43.9 °F 97% 29.96 in 5.0 mi ENE 10.4 mph 17.3 mph 0.10 in Rain Light Rain
2:15 PM 44.6 °F 39.2 °F 43.9 °F 97% 29.97 in 4.0 mi East 10.4 mph - 0.04 in Rain Rain
2:35 PM 44.6 °F 38.8 °F 43.7 °F 97% 29.96 in 4.0 mi ENE 11.5 mph 19.6 mph 0.08 in Rain Rain
2:55 PM 44.8 °F 38.0 °F 44.1 °F 97% 29.95 in 5.0 mi ENE 15.0 mph 20.7 mph 0.12 in Rain Light Rain
3:15 PM 44.6 °F 38.8 °F 43.9 °F 97% 29.94 in 5.0 mi East 11.5 mph 20.7 mph 0.02 in Rain Light Rain
3:35 PM 44.8 °F 38.3 °F 43.9 °F 97% 29.94 in 5.0 mi ENE 13.8 mph 21.9 mph 0.05 in Rain Light Rain
3:55 PM 44.8 °F 39.0 °F 44.1 °F 97% 29.92 in 7.0 mi ENE 11.5 mph 21.9 mph 0.07 in Rain Light Rain
4:15 PM 45.1 °F 39.1 °F 44.6 °F 98% 29.92 in 7.0 mi East 12.7 mph 19.6 mph N/A Rain Light Rain
4:35 PM 44.8 °F 39.4 °F 43.9 °F 97% 29.91 in 7.0 mi ENE 10.4 mph 20.7 mph N/A   Light Drizzle
4:55 PM 44.1 °F 38.6 °F 43.5 °F 98% 29.92 in 7.0 mi East 10.4 mph - 0.01 in Rain Rain
5:15 PM 43.7 °F 38.6 °F 42.8 °F 97% 29.91 in 10.0 mi ENE 9.2 mph 17.3 mph N/A   Overcast
5:35 PM 43.9 °F 39.3 °F 43.2 °F 97% 29.91 in 10.0 mi ENE 8.1 mph - N/A   Overcast
5:55 PM 43.3 °F 36.8 °F 42.8 °F 98% 29.91 in 10.0 mi ENE 12.7 mph 18.4 mph N/A   Overcast
6:15 PM 43.2 °F 38.4 °F 42.4 °F 97% 29.91 in 10.0 mi ENE 8.1 mph - N/A Rain Rain
6:35 PM 43.5 °F 38.9 °F 43.0 °F 98% 29.91 in 7.0 mi ENE 8.1 mph - N/A Rain Rain
6:55 PM 43.7 °F 39.1 °F 43.2 °F 98% 29.91 in 3.0 mi ENE 8.1 mph - 0.09 in Rain Rain
7:15 PM 43.7 °F 38.6 °F 43.2 °F 98% 29.91 in 10.0 mi ENE 9.2 mph - 0.01 in   Drizzle
7:35 PM 43.7 °F 39.1 °F 42.8 °F 97% 29.90 in 10.0 mi ENE 8.1 mph 16.1 mph 0.01 in   Overcast
7:55 PM 43.2 °F 38.4 °F 42.8 °F 99% 29.89 in 10.0 mi ENE 8.1 mph - 0.01 in   Overcast
8:15 PM 43.3 °F 38.6 °F 42.8 °F 98% 29.89 in 10.0 mi ENE 8.1 mph - N/A   Overcast
8:35 PM 43.3 °F 39.9 °F 42.8 °F 98% 29.90 in 10.0 mi NE 5.8 mph - N/A   Overcast
8:55 PM 43.2 °F 39.7 °F 42.6 °F 98% 29.88 in 7.0 mi NE 5.8 mph - N/A Rain Light Rain
9:15 PM 43.2 °F 38.4 °F 42.8 °F 99% 29.88 in 7.0 mi ENE 8.1 mph - 0.01 in Rain Light Rain
9:35 PM 43.0 °F 39.5 °F 42.4 °F 98% 29.89 in 7.0 mi NNE 5.8 mph - 0.02 in   Drizzle
9:55 PM 43.0 °F 41.3 °F 42.4 °F 98% 29.89 in 10.0 mi NE 3.5 mph - 0.03 in   Overcast
10:15 PM 43.2 °F 39.0 °F 42.8 °F 99% 29.90 in 10.0 mi NE 6.9 mph - N/A   Overcast
10:35 PM 43.3 °F 37.7 °F 42.3 °F 96% 29.89 in 10.0 mi ENE 10.4 mph - N/A   Overcast
10:55 PM 43.0 °F 37.7 °F 41.5 °F 95% 29.89 in 10.0 mi ENE 9.2 mph - N/A   Overcast
11:15 PM 43.0 °F 38.2 °F 41.4 °F 94% 29.89 in 10.0 mi ENE 8.1 mph - N/A   Overcast
11:35 PM 43.2 °F 39.0 °F 41.2 °F 93% 29.88 in 10.0 mi ENE 6.9 mph - N/A   Overcast
11:55 PM 43.3 °F 40.7 °F 41.7 °F 94% 29.88 in 10.0 mi East 4.6 mph - N/A   Overcast